sensor_id;sensor_type;location;lat;lon;timestamp;temperature;humidity
8261;DHT22;64115;50.170;8.242;2023-10-09T00:01:43;13.60;99.90
8261;DHT22;64115;50.170;8.242;2023-10-09T00:04:12;13.60;99.90
8261;DHT22;64115;50.170;8.242;2023-10-09T00:06:39;13.60;99.90
8261;DHT22;64115;50.170;8.242;2023-10-09T00:09:07;13.60;99.90
8261;DHT22;64115;50.170;8.242;2023-10-09T00:11:45;13.60;99.90
8261;DHT22;64115;50.170;8.242;2023-10-09T00:14:15;13.60;99.90
8261;DHT22;64115;50.170;8.242;2023-10-09T00:16:44;13.60;99.90
8261;DHT22;64115;50.170;8.242;2023-10-09T00:19:14;13.60;99.90
8261;DHT22;64115;50.170;8.242;2023-10-09T00:21:43;13.60;99.90
8261;DHT22;64115;50.170;8.242;2023-10-09T00:24:11;13.60;99.90
8261;DHT22;64115;50.170;8.242;2023-10-09T00:26:43;13.60;99.90
8261;DHT22;64115;50.170;8.242;2023-10-09T00:29:12;13.60;99.90
8261;DHT22;64115;50.170;8.242;2023-10-09T00:31:49;13.60;99.90
8261;DHT22;64115;50.170;8.242;2023-10-09T00:34:29;13.60;99.90
8261;DHT22;64115;50.170;8.242;2023-10-09T00:36:56;13.60;99.90
8261;DHT22;64115;50.170;8.242;2023-10-09T00:39:29;13.60;99.90
8261;DHT22;64115;50.170;8.242;2023-10-09T00:42:07;13.60;99.90
8261;DHT22;64115;50.170;8.242;2023-10-09T00:44:38;13.60;99.90
8261;DHT22;64115;50.170;8.242;2023-10-09T00:47:08;13.60;99.90
8261;DHT22;64115;50.170;8.242;2023-10-09T00:49:51;13.60;99.90
8261;DHT22;64115;50.170;8.242;2023-10-09T00:52:20;13.60;99.90
8261;DHT22;64115;50.170;8.242;2023-10-09T00:54:57;13.60;99.90
8261;DHT22;64115;50.170;8.242;2023-10-09T00:57:29;13.60;99.90
8261;DHT22;64115;50.170;8.242;2023-10-09T01:00:00;13.60;99.90
8261;DHT22;64115;50.170;8.242;2023-10-09T01:02:39;13.60;99.90
8261;DHT22;64115;50.170;8.242;2023-10-09T01:05:10;13.60;99.90
8261;DHT22;64115;50.170;8.242;2023-10-09T01:07:46;13.60;99.90
8261;DHT22;64115;50.170;8.242;2023-10-09T01:10:13;13.60;99.90
8261;DHT22;64115;50.170;8.242;2023-10-09T01:12:42;13.60;99.90
8261;DHT22;64115;50.170;8.242;2023-10-09T01:15:10;13.50;99.90
8261;DHT22;64115;50.170;8.242;2023-10-09T01:17:45;13.50;99.90
8261;DHT22;64115;50.170;8.242;2023-10-09T01:20:13;13.50;99.90
8261;DHT22;64115;50.170;8.242;2023-10-09T01:22:42;13.50;99.90
8261;DHT22;64115;50.170;8.242;2023-10-09T01:25:11;13.40;99.90
8261;DHT22;64115;50.170;8.242;2023-10-09T01:27:38;13.40;99.90
8261;DHT22;64115;50.170;8.242;2023-10-09T01:30:07;13.40;99.90
8261;DHT22;64115;50.170;8.242;2023-10-09T01:32:39;13.40;99.90
8261;DHT22;64115;50.170;8.242;2023-10-09T01:35:06;13.40;99.90
8261;DHT22;64115;50.170;8.242;2023-10-09T01:37:46;13.40;99.90
8261;DHT22;64115;50.170;8.242;2023-10-09T01:40:18;13.40;99.90
8261;DHT22;64115;50.170;8.242;2023-10-09T01:42:50;13.30;99.90
8261;DHT22;64115;50.170;8.242;2023-10-09T01:45:17;13.40;99.90
8261;DHT22;64115;50.170;8.242;2023-10-09T01:47:53;13.30;99.90
8261;DHT22;64115;50.170;8.242;2023-10-09T01:50:21;13.40;99.90
8261;DHT22;64115;50.170;8.242;2023-10-09T01:52:50;13.30;99.90
8261;DHT22;64115;50.170;8.242;2023-10-09T01:55:19;13.30;99.90
8261;DHT22;64115;50.170;8.242;2023-10-09T01:57:59;13.30;99.90
8261;DHT22;64115;50.170;8.242;2023-10-09T02:00:31;13.30;99.90
8261;DHT22;64115;50.170;8.242;2023-10-09T02:03:01;13.30;99.90
8261;DHT22;64115;50.170;8.242;2023-10-09T02:05:31;13.30;99.90
8261;DHT22;64115;50.170;8.242;2023-10-09T02:07:59;13.30;99.90
8261;DHT22;64115;50.170;8.242;2023-10-09T02:10:29;13.30;99.90
8261;DHT22;64115;50.170;8.242;2023-10-09T02:12:59;13.30;99.90
8261;DHT22;64115;50.170;8.242;2023-10-09T02:15:32;13.30;99.90
8261;DHT22;64115;50.170;8.242;2023-10-09T02:18:18;13.30;99.90
8261;DHT22;64115;50.170;8.242;2023-10-09T02:20:51;13.30;99.90
8261;DHT22;64115;50.170;8.242;2023-10-09T02:23:26;13.30;99.90
8261;DHT22;64115;50.170;8.242;2023-10-09T02:26:05;13.30;99.90
8261;DHT22;64115;50.170;8.242;2023-10-09T02:28:34;13.30;99.90
8261;DHT22;64115;50.170;8.242;2023-10-09T02:31:09;13.20;99.90
8261;DHT22;64115;50.170;8.242;2023-10-09T02:33:36;13.20;99.90
8261;DHT22;64115;50.170;8.242;2023-10-09T02:36:04;13.20;99.90
8261;DHT22;64115;50.170;8.242;2023-10-09T02:38:32;13.10;99.90
8261;DHT22;64115;50.170;8.242;2023-10-09T02:41:04;13.10;99.90
8261;DHT22;64115;50.170;8.242;2023-10-09T02:43:46;13.10;99.90
8261;DHT22;64115;50.170;8.242;2023-10-09T02:46:13;13.10;99.90
8261;DHT22;64115;50.170;8.242;2023-10-09T02:48:44;13.10;99.90
8261;DHT22;64115;50.170;8.242;2023-10-09T02:51:16;13.10;99.90
8261;DHT22;64115;50.170;8.242;2023-10-09T02:54:00;13.00;99.90
8261;DHT22;64115;50.170;8.242;2023-10-09T02:56:35;13.00;99.90
8261;DHT22;64115;50.170;8.242;2023-10-09T02:59:06;13.00;99.90
8261;DHT22;64115;50.170;8.242;2023-10-09T03:01:33;12.90;99.90
8261;DHT22;64115;50.170;8.242;2023-10-09T03:04:03;12.90;99.90
8261;DHT22;64115;50.170;8.242;2023-10-09T03:06:31;12.80;99.90
8261;DHT22;64115;50.170;8.242;2023-10-09T03:09:00;12.80;99.90
8261;DHT22;64115;50.170;8.242;2023-10-09T03:11:43;12.80;99.90
8261;DHT22;64115;50.170;8.242;2023-10-09T03:14:13;12.80;99.90
8261;DHT22;64115;50.170;8.242;2023-10-09T03:16:41;12.80;99.90
8261;DHT22;64115;50.170;8.242;2023-10-09T03:19:08;12.80;99.90
8261;DHT22;64115;50.170;8.242;2023-10-09T03:21:36;12.90;99.90
8261;DHT22;64115;50.170;8.242;2023-10-09T03:24:03;12.90;99.90
8261;DHT22;64115;50.170;8.242;2023-10-09T03:26:32;12.90;99.90
8261;DHT22;64115;50.170;8.242;2023-10-09T03:29:00;12.90;99.90
8261;DHT22;64115;50.170;8.242;2023-10-09T03:31:27;12.90;99.90
8261;DHT22;64115;50.170;8.242;2023-10-09T03:33:57;13.00;99.90
8261;DHT22;64115;50.170;8.242;2023-10-09T03:36:24;13.00;99.90
8261;DHT22;64115;50.170;8.242;2023-10-09T03:38:52;13.00;99.90
8261;DHT22;64115;50.170;8.242;2023-10-09T03:41:20;13.00;99.90
8261;DHT22;64115;50.170;8.242;2023-10-09T03:43:47;13.00;99.90
8261;DHT22;64115;50.170;8.242;2023-10-09T03:46:15;13.00;99.90
8261;DHT22;64115;50.170;8.242;2023-10-09T03:48:48;13.10;99.90
8261;DHT22;64115;50.170;8.242;2023-10-09T03:51:15;13.00;99.90
8261;DHT22;64115;50.170;8.242;2023-10-09T03:53:47;13.10;99.90
8261;DHT22;64115;50.170;8.242;2023-10-09T03:56:14;13.10;99.90
8261;DHT22;64115;50.170;8.242;2023-10-09T03:58:42;13.00;99.90
8261;DHT22;64115;50.170;8.242;2023-10-09T04:01:11;13.00;99.90
8261;DHT22;64115;50.170;8.242;2023-10-09T04:03:45;13.00;99.90
8261;DHT22;64115;50.170;8.242;2023-10-09T04:06:12;13.00;99.90
8261;DHT22;64115;50.170;8.242;2023-10-09T04:08:39;13.00;99.90
8261;DHT22;64115;50.170;8.242;2023-10-09T04:11:13;13.00;99.90
8261;DHT22;64115;50.170;8.242;2023-10-09T04:13:43;13.00;99.90
8261;DHT22;64115;50.170;8.242;2023-10-09T04:16:11;12.90;99.90
8261;DHT22;64115;50.170;8.242;2023-10-09T04:19:01;12.90;99.90
8261;DHT22;64115;50.170;8.242;2023-10-09T04:21:36;13.00;99.90
8261;DHT22;64115;50.170;8.242;2023-10-09T04:24:03;13.00;99.90
8261;DHT22;64115;50.170;8.242;2023-10-09T04:26:49;12.90;99.90
8261;DHT22;64115;50.170;8.242;2023-10-09T04:29:22;12.90;99.90
8261;DHT22;64115;50.170;8.242;2023-10-09T04:32:04;12.90;99.90
8261;DHT22;64115;50.170;8.242;2023-10-09T04:34:34;12.90;99.90
8261;DHT22;64115;50.170;8.242;2023-10-09T04:37:01;12.90;99.90
8261;DHT22;64115;50.170;8.242;2023-10-09T04:39:45;13.00;99.90
8261;DHT22;64115;50.170;8.242;2023-10-09T04:42:26;13.00;99.90
8261;DHT22;64115;50.170;8.242;2023-10-09T04:45:02;13.00;99.90
8261;DHT22;64115;50.170;8.242;2023-10-09T04:47:46;13.00;99.90
8261;DHT22;64115;50.170;8.242;2023-10-09T04:50:24;13.10;99.90
8261;DHT22;64115;50.170;8.242;2023-10-09T04:53:12;13.10;99.90
8261;DHT22;64115;50.170;8.242;2023-10-09T04:55:48;13.10;99.90
8261;DHT22;64115;50.170;8.242;2023-10-09T04:58:21;13.10;99.90
8261;DHT22;64115;50.170;8.242;2023-10-09T05:00:52;13.20;99.90
8261;DHT22;64115;50.170;8.242;2023-10-09T05:03:39;13.20;99.90
8261;DHT22;64115;50.170;8.242;2023-10-09T05:06:23;13.20;99.90
8261;DHT22;64115;50.170;8.242;2023-10-09T05:09:04;13.20;99.90
8261;DHT22;64115;50.170;8.242;2023-10-09T05:11:38;13.20;99.90
8261;DHT22;64115;50.170;8.242;2023-10-09T05:14:20;13.20;99.90
8261;DHT22;64115;50.170;8.242;2023-10-09T05:17:07;13.20;99.90
8261;DHT22;64115;50.170;8.242;2023-10-09T05:19:41;13.20;99.90
8261;DHT22;64115;50.170;8.242;2023-10-09T05:22:10;13.30;99.90
8261;DHT22;64115;50.170;8.242;2023-10-09T05:24:55;13.20;99.90
8261;DHT22;64115;50.170;8.242;2023-10-09T05:27:21;13.30;99.90
8261;DHT22;64115;50.170;8.242;2023-10-09T05:30:11;13.30;99.90
8261;DHT22;64115;50.170;8.242;2023-10-09T05:32:53;13.30;99.90
8261;DHT22;64115;50.170;8.242;2023-10-09T05:35:24;13.30;99.90
8261;DHT22;64115;50.170;8.242;2023-10-09T05:38:07;13.30;99.90
8261;DHT22;64115;50.170;8.242;2023-10-09T05:40:40;13.30;99.90
8261;DHT22;64115;50.170;8.242;2023-10-09T05:43:09;13.40;99.90
8261;DHT22;64115;50.170;8.242;2023-10-09T05:45:55;13.30;99.90
8261;DHT22;64115;50.170;8.242;2023-10-09T05:48:33;13.40;99.90
8261;DHT22;64115;50.170;8.242;2023-10-09T05:51:26;13.40;99.90
8261;DHT22;64115;50.170;8.242;2023-10-09T05:54:08;13.40;99.90
8261;DHT22;64115;50.170;8.242;2023-10-09T05:56:40;13.40;99.90
8261;DHT22;64115;50.170;8.242;2023-10-09T05:59:25;13.40;99.90
8261;DHT22;64115;50.170;8.242;2023-10-09T06:02:09;13.40;99.90
8261;DHT22;64115;50.170;8.242;2023-10-09T06:04:58;13.40;99.90
8261;DHT22;64115;50.170;8.242;2023-10-09T06:07:31;13.40;99.90
8261;DHT22;64115;50.170;8.242;2023-10-09T06:10:27;13.40;99.90
8261;DHT22;64115;50.170;8.242;2023-10-09T06:13:05;13.40;99.90
8261;DHT22;64115;50.170;8.242;2023-10-09T06:15:36;13.40;99.90
8261;DHT22;64115;50.170;8.242;2023-10-09T06:18:17;13.40;99.90
8261;DHT22;64115;50.170;8.242;2023-10-09T06:20:58;13.50;99.90
8261;DHT22;64115;50.170;8.242;2023-10-09T06:23:37;13.50;99.90
8261;DHT22;64115;50.170;8.242;2023-10-09T06:26:21;13.50;99.90
8261;DHT22;64115;50.170;8.242;2023-10-09T06:28:51;13.60;99.90
8261;DHT22;64115;50.170;8.242;2023-10-09T06:31:39;13.60;99.90
8261;DHT22;64115;50.170;8.242;2023-10-09T06:34:26;13.60;99.90
8261;DHT22;64115;50.170;8.242;2023-10-09T06:37:01;13.60;99.90
8261;DHT22;64115;50.170;8.242;2023-10-09T06:39:40;13.60;99.90
8261;DHT22;64115;50.170;8.242;2023-10-09T06:42:24;13.70;99.90
8261;DHT22;64115;50.170;8.242;2023-10-09T06:45:11;13.70;99.90
8261;DHT22;64115;50.170;8.242;2023-10-09T06:47:42;13.70;99.90
8261;DHT22;64115;50.170;8.242;2023-10-09T06:50:09;13.80;99.90
8261;DHT22;64115;50.170;8.242;2023-10-09T06:52:50;13.80;99.90
8261;DHT22;64115;50.170;8.242;2023-10-09T06:55:47;13.90;99.90
8261;DHT22;64115;50.170;8.242;2023-10-09T06:58:18;13.90;99.90
8261;DHT22;64115;50.170;8.242;2023-10-09T07:00:49;13.90;99.90
8261;DHT22;64115;50.170;8.242;2023-10-09T07:03:26;13.90;99.90
8261;DHT22;64115;50.170;8.242;2023-10-09T07:06:03;14.00;99.90
8261;DHT22;64115;50.170;8.242;2023-10-09T07:08:35;14.00;99.90
8261;DHT22;64115;50.170;8.242;2023-10-09T07:11:04;14.10;99.90
8261;DHT22;64115;50.170;8.242;2023-10-09T07:14:12;14.10;99.90
8261;DHT22;64115;50.170;8.242;2023-10-09T07:16:58;14.20;99.90
8261;DHT22;64115;50.170;8.242;2023-10-09T07:19:26;14.20;99.90
8261;DHT22;64115;50.170;8.242;2023-10-09T07:22:00;14.20;99.90
8261;DHT22;64115;50.170;8.242;2023-10-09T07:24:28;14.30;99.90
8261;DHT22;64115;50.170;8.242;2023-10-09T07:27:04;14.30;99.90
8261;DHT22;64115;50.170;8.242;2023-10-09T07:29:34;14.40;99.90
8261;DHT22;64115;50.170;8.242;2023-10-09T07:32:13;14.40;99.90
8261;DHT22;64115;50.170;8.242;2023-10-09T07:34:46;14.50;99.90
8261;DHT22;64115;50.170;8.242;2023-10-09T07:37:26;14.60;99.90
8261;DHT22;64115;50.170;8.242;2023-10-09T07:39:56;14.80;99.90
8261;DHT22;64115;50.170;8.242;2023-10-09T07:42:25;14.90;99.90
8261;DHT22;64115;50.170;8.242;2023-10-09T07:45:10;15.00;99.90
8261;DHT22;64115;50.170;8.242;2023-10-09T07:47:59;15.10;99.90
8261;DHT22;64115;50.170;8.242;2023-10-09T07:50:35;15.10;99.90
8261;DHT22;64115;50.170;8.242;2023-10-09T07:53:06;15.20;99.90
8261;DHT22;64115;50.170;8.242;2023-10-09T07:55:44;15.30;99.90
8261;DHT22;64115;50.170;8.242;2023-10-09T07:58:21;15.40;99.90
8261;DHT22;64115;50.170;8.242;2023-10-09T08:00:52;15.50;99.90
8261;DHT22;64115;50.170;8.242;2023-10-09T08:03:33;15.60;99.90
8261;DHT22;64115;50.170;8.242;2023-10-09T08:06:01;15.80;99.90
8261;DHT22;64115;50.170;8.242;2023-10-09T08:08:53;15.90;99.90
8261;DHT22;64115;50.170;8.242;2023-10-09T08:11:34;16.00;99.90
8261;DHT22;64115;50.170;8.242;2023-10-09T08:14:19;16.10;99.90
8261;DHT22;64115;50.170;8.242;2023-10-09T08:17:07;16.10;99.90
8261;DHT22;64115;50.170;8.242;2023-10-09T08:19:42;16.10;99.90
8261;DHT22;64115;50.170;8.242;2023-10-09T08:22:25;16.00;99.90
8261;DHT22;64115;50.170;8.242;2023-10-09T08:25:15;15.90;99.90
8261;DHT22;64115;50.170;8.242;2023-10-09T08:27:58;15.80;99.90
8261;DHT22;64115;50.170;8.242;2023-10-09T08:30:46;15.70;99.90
8261;DHT22;64115;50.170;8.242;2023-10-09T08:33:28;15.70;99.90
8261;DHT22;64115;50.170;8.242;2023-10-09T08:36:07;15.80;99.90
8261;DHT22;64115;50.170;8.242;2023-10-09T08:38:35;15.90;99.90
8261;DHT22;64115;50.170;8.242;2023-10-09T08:41:09;16.00;99.90
8261;DHT22;64115;50.170;8.242;2023-10-09T08:43:50;16.10;99.90
8261;DHT22;64115;50.170;8.242;2023-10-09T08:46:23;16.20;99.90
8261;DHT22;64115;50.170;8.242;2023-10-09T08:48:52;16.20;99.90
8261;DHT22;64115;50.170;8.242;2023-10-09T08:51:21;16.30;99.90
8261;DHT22;64115;50.170;8.242;2023-10-09T08:53:48;16.30;99.90
8261;DHT22;64115;50.170;8.242;2023-10-09T08:56:16;16.30;99.90
8261;DHT22;64115;50.170;8.242;2023-10-09T08:58:48;16.40;99.90
8261;DHT22;64115;50.170;8.242;2023-10-09T09:01:17;16.50;99.90
8261;DHT22;64115;50.170;8.242;2023-10-09T09:03:49;16.60;99.90
8261;DHT22;64115;50.170;8.242;2023-10-09T09:06:18;16.60;99.90
8261;DHT22;64115;50.170;8.242;2023-10-09T09:08:45;16.70;99.90
8261;DHT22;64115;50.170;8.242;2023-10-09T09:11:14;16.70;99.90
8261;DHT22;64115;50.170;8.242;2023-10-09T09:13:44;16.60;99.90
8261;DHT22;64115;50.170;8.242;2023-10-09T09:16:16;16.50;99.90
8261;DHT22;64115;50.170;8.242;2023-10-09T09:18:54;16.40;99.90
8261;DHT22;64115;50.170;8.242;2023-10-09T09:21:26;16.40;99.90
8261;DHT22;64115;50.170;8.242;2023-10-09T09:23:55;16.40;99.90
8261;DHT22;64115;50.170;8.242;2023-10-09T09:26:36;16.50;99.90
8261;DHT22;64115;50.170;8.242;2023-10-09T09:29:06;16.50;99.90
8261;DHT22;64115;50.170;8.242;2023-10-09T09:31:34;16.50;99.90
8261;DHT22;64115;50.170;8.242;2023-10-09T09:34:09;16.60;99.90
8261;DHT22;64115;50.170;8.242;2023-10-09T09:36:53;16.70;99.90
8261;DHT22;64115;50.170;8.242;2023-10-09T09:39:22;16.80;99.90
8261;DHT22;64115;50.170;8.242;2023-10-09T09:41:55;16.90;99.90
8261;DHT22;64115;50.170;8.242;2023-10-09T09:44:23;17.00;99.90
8261;DHT22;64115;50.170;8.242;2023-10-09T09:46:57;17.00;99.90
8261;DHT22;64115;50.170;8.242;2023-10-09T09:49:27;17.00;99.90
8261;DHT22;64115;50.170;8.242;2023-10-09T09:52:00;17.10;99.90
8261;DHT22;64115;50.170;8.242;2023-10-09T09:54:28;17.10;99.90
8261;DHT22;64115;50.170;8.242;2023-10-09T09:57:00;17.10;99.90
8261;DHT22;64115;50.170;8.242;2023-10-09T09:59:39;17.00;99.90
8261;DHT22;64115;50.170;8.242;2023-10-09T10:02:18;17.00;99.90
8261;DHT22;64115;50.170;8.242;2023-10-09T10:04:53;17.00;99.90
8261;DHT22;64115;50.170;8.242;2023-10-09T10:07:23;17.00;99.90
8261;DHT22;64115;50.170;8.242;2023-10-09T10:09:51;17.00;99.90
8261;DHT22;64115;50.170;8.242;2023-10-09T10:12:51;17.10;99.90
8261;DHT22;64115;50.170;8.242;2023-10-09T10:15:58;17.20;99.90
8261;DHT22;64115;50.170;8.242;2023-10-09T10:18:31;17.30;99.90
8261;DHT22;64115;50.170;8.242;2023-10-09T10:21:11;17.40;99.90
8261;DHT22;64115;50.170;8.242;2023-10-09T10:23:42;17.40;99.90
8261;DHT22;64115;50.170;8.242;2023-10-09T10:26:16;17.40;99.90
8261;DHT22;64115;50.170;8.242;2023-10-09T10:29:16;17.50;99.90
8261;DHT22;64115;50.170;8.242;2023-10-09T10:31:59;17.70;99.90
8261;DHT22;64115;50.170;8.242;2023-10-09T10:34:53;17.90;99.90
8261;DHT22;64115;50.170;8.242;2023-10-09T10:37:35;18.10;99.90
8261;DHT22;64115;50.170;8.242;2023-10-09T10:40:10;18.40;99.90
8261;DHT22;64115;50.170;8.242;2023-10-09T10:43:00;18.70;99.90
8261;DHT22;64115;50.170;8.242;2023-10-09T10:45:35;18.80;99.90
8261;DHT22;64115;50.170;8.242;2023-10-09T10:48:05;18.90;99.90
8261;DHT22;64115;50.170;8.242;2023-10-09T10:50:34;19.00;99.90
8261;DHT22;64115;50.170;8.242;2023-10-09T10:53:11;19.20;99.90
8261;DHT22;64115;50.170;8.242;2023-10-09T10:55:54;19.30;99.90
8261;DHT22;64115;50.170;8.242;2023-10-09T10:58:22;19.40;99.90
8261;DHT22;64115;50.170;8.242;2023-10-09T11:01:01;19.60;99.90
8261;DHT22;64115;50.170;8.242;2023-10-09T11:03:39;19.80;99.90
8261;DHT22;64115;50.170;8.242;2023-10-09T11:06:33;20.00;99.90
8261;DHT22;64115;50.170;8.242;2023-10-09T11:09:03;20.10;99.90
8261;DHT22;64115;50.170;8.242;2023-10-09T11:11:47;20.20;99.90
8261;DHT22;64115;50.170;8.242;2023-10-09T11:14:14;20.20;99.90
8261;DHT22;64115;50.170;8.242;2023-10-09T11:16:41;20.20;99.90
8261;DHT22;64115;50.170;8.242;2023-10-09T11:19:14;20.20;99.90
8261;DHT22;64115;50.170;8.242;2023-10-09T11:22:00;20.30;99.90
8261;DHT22;64115;50.170;8.242;2023-10-09T11:24:47;20.40;99.90
8261;DHT22;64115;50.170;8.242;2023-10-09T11:27:26;20.40;99.90
8261;DHT22;64115;50.170;8.242;2023-10-09T11:29:58;20.50;99.90
8261;DHT22;64115;50.170;8.242;2023-10-09T11:32:37;20.50;99.90
8261;DHT22;64115;50.170;8.242;2023-10-09T11:35:12;20.50;99.90
8261;DHT22;64115;50.170;8.242;2023-10-09T11:37:55;20.50;99.90
8261;DHT22;64115;50.170;8.242;2023-10-09T11:40:29;20.50;99.90
8261;DHT22;64115;50.170;8.242;2023-10-09T11:43:00;20.50;99.90
8261;DHT22;64115;50.170;8.242;2023-10-09T11:45:29;20.60;99.90
8261;DHT22;64115;50.170;8.242;2023-10-09T11:48:16;20.60;99.90
8261;DHT22;64115;50.170;8.242;2023-10-09T11:50:51;20.70;99.90
8261;DHT22;64115;50.170;8.242;2023-10-09T11:53:20;20.80;99.90
8261;DHT22;64115;50.170;8.242;2023-10-09T11:56:02;20.80;99.90
8261;DHT22;64115;50.170;8.242;2023-10-09T11:58:29;20.80;99.90
8261;DHT22;64115;50.170;8.242;2023-10-09T12:00:56;20.80;99.90
8261;DHT22;64115;50.170;8.242;2023-10-09T12:03:25;20.80;99.90
8261;DHT22;64115;50.170;8.242;2023-10-09T12:05:59;20.80;99.90
8261;DHT22;64115;50.170;8.242;2023-10-09T12:08:31;20.80;99.90
8261;DHT22;64115;50.170;8.242;2023-10-09T12:10:58;20.80;99.90
8261;DHT22;64115;50.170;8.242;2023-10-09T12:13:28;20.80;99.90
8261;DHT22;64115;50.170;8.242;2023-10-09T12:15:55;20.70;99.90
8261;DHT22;64115;50.170;8.242;2023-10-09T12:18:23;20.70;99.90
8261;DHT22;64115;50.170;8.242;2023-10-09T12:20:50;20.70;99.90
8261;DHT22;64115;50.170;8.242;2023-10-09T12:23:18;20.60;99.90
8261;DHT22;64115;50.170;8.242;2023-10-09T12:25:48;20.50;99.90
8261;DHT22;64115;50.170;8.242;2023-10-09T12:28:15;20.50;99.90
8261;DHT22;64115;50.170;8.242;2023-10-09T12:30:46;20.60;99.90
8261;DHT22;64115;50.170;8.242;2023-10-09T12:33:16;20.50;99.90
8261;DHT22;64115;50.170;8.242;2023-10-09T12:35:43;20.50;99.90
8261;DHT22;64115;50.170;8.242;2023-10-09T12:38:11;20.50;99.90
8261;DHT22;64115;50.170;8.242;2023-10-09T12:40:44;20.50;99.90
8261;DHT22;64115;50.170;8.242;2023-10-09T12:43:17;20.50;99.90
8261;DHT22;64115;50.170;8.242;2023-10-09T12:45:45;20.50;99.90
8261;DHT22;64115;50.170;8.242;2023-10-09T12:48:12;20.60;99.90
8261;DHT22;64115;50.170;8.242;2023-10-09T12:50:40;20.60;99.90
8261;DHT22;64115;50.170;8.242;2023-10-09T12:53:12;20.50;99.90
8261;DHT22;64115;50.170;8.242;2023-10-09T12:55:43;20.60;99.90
8261;DHT22;64115;50.170;8.242;2023-10-09T12:58:11;20.60;99.90
8261;DHT22;64115;50.170;8.242;2023-10-09T13:00:43;20.60;99.90
8261;DHT22;64115;50.170;8.242;2023-10-09T13:03:15;20.50;99.90
8261;DHT22;64115;50.170;8.242;2023-10-09T13:05:46;20.60;99.90
8261;DHT22;64115;50.170;8.242;2023-10-09T13:08:21;20.60;99.90
8261;DHT22;64115;50.170;8.242;2023-10-09T13:10:50;20.70;99.90
8261;DHT22;64115;50.170;8.242;2023-10-09T13:13:27;20.60;99.90
8261;DHT22;64115;50.170;8.242;2023-10-09T13:16:12;20.70;99.90
8261;DHT22;64115;50.170;8.242;2023-10-09T13:18:46;20.70;99.90
8261;DHT22;64115;50.170;8.242;2023-10-09T13:21:17;20.70;99.90
8261;DHT22;64115;50.170;8.242;2023-10-09T13:23:44;20.70;99.90
8261;DHT22;64115;50.170;8.242;2023-10-09T13:26:13;20.70;99.90
8261;DHT22;64115;50.170;8.242;2023-10-09T13:28:50;20.70;99.90
8261;DHT22;64115;50.170;8.242;2023-10-09T13:31:20;20.70;99.90
8261;DHT22;64115;50.170;8.242;2023-10-09T13:33:51;20.70;99.90
8261;DHT22;64115;50.170;8.242;2023-10-09T13:36:20;20.70;99.90
8261;DHT22;64115;50.170;8.242;2023-10-09T13:38:52;20.60;99.90
8261;DHT22;64115;50.170;8.242;2023-10-09T13:41:20;20.60;99.90
8261;DHT22;64115;50.170;8.242;2023-10-09T16:45:05;17.00;99.90
8261;DHT22;64115;50.170;8.242;2023-10-09T16:47:34;17.00;99.90
8261;DHT22;64115;50.170;8.242;2023-10-09T16:50:06;16.90;99.90
8261;DHT22;64115;50.170;8.242;2023-10-09T16:52:34;16.80;99.90
8261;DHT22;64115;50.170;8.242;2023-10-09T16:55:04;16.80;99.90
8261;DHT22;64115;50.170;8.242;2023-10-09T16:57:34;16.70;99.90
8261;DHT22;64115;50.170;8.242;2023-10-09T17:00:01;16.70;99.90
8261;DHT22;64115;50.170;8.242;2023-10-09T17:02:39;16.70;99.90
8261;DHT22;64115;50.170;8.242;2023-10-09T17:05:08;16.60;99.90
8261;DHT22;64115;50.170;8.242;2023-10-09T17:07:39;16.50;99.90
8261;DHT22;64115;50.170;8.242;2023-10-09T17:10:08;16.50;99.90
8261;DHT22;64115;50.170;8.242;2023-10-09T17:12:44;16.50;99.90
8261;DHT22;64115;50.170;8.242;2023-10-09T17:15:13;16.50;99.90
8261;DHT22;64115;50.170;8.242;2023-10-09T17:17:43;16.40;99.90
8261;DHT22;64115;50.170;8.242;2023-10-09T17:20:12;16.40;99.90
8261;DHT22;64115;50.170;8.242;2023-10-09T17:22:39;16.30;99.90
8261;DHT22;64115;50.170;8.242;2023-10-09T17:25:06;16.20;99.90
8261;DHT22;64115;50.170;8.242;2023-10-09T17:27:38;16.20;99.90
8261;DHT22;64115;50.170;8.242;2023-10-09T17:30:09;16.10;99.90
8261;DHT22;64115;50.170;8.242;2023-10-09T17:32:36;16.10;99.90
8261;DHT22;64115;50.170;8.242;2023-10-09T17:35:06;16.00;99.90
8261;DHT22;64115;50.170;8.242;2023-10-09T17:37:36;16.00;99.90
8261;DHT22;64115;50.170;8.242;2023-10-09T17:40:06;16.00;99.90
8261;DHT22;64115;50.170;8.242;2023-10-09T17:42:33;15.90;99.90
8261;DHT22;64115;50.170;8.242;2023-10-09T17:45:00;15.90;99.90
8261;DHT22;64115;50.170;8.242;2023-10-09T17:47:31;15.80;99.90
8261;DHT22;64115;50.170;8.242;2023-10-09T17:50:00;15.80;99.90
8261;DHT22;64115;50.170;8.242;2023-10-09T17:52:28;15.70;99.90
8261;DHT22;64115;50.170;8.242;2023-10-09T17:54:59;15.70;99.90
8261;DHT22;64115;50.170;8.242;2023-10-09T17:57:28;15.60;99.90
8261;DHT22;64115;50.170;8.242;2023-10-09T17:59:56;15.60;99.90
8261;DHT22;64115;50.170;8.242;2023-10-09T18:02:22;15.50;99.90
8261;DHT22;64115;50.170;8.242;2023-10-09T18:04:53;15.40;99.90
8261;DHT22;64115;50.170;8.242;2023-10-09T18:07:20;15.40;99.90
8261;DHT22;64115;50.170;8.242;2023-10-09T18:09:50;15.40;99.90
8261;DHT22;64115;50.170;8.242;2023-10-09T18:12:19;15.40;99.90
8261;DHT22;64115;50.170;8.242;2023-10-09T18:14:47;15.30;99.90
8261;DHT22;64115;50.170;8.242;2023-10-09T18:17:17;15.30;99.90
8261;DHT22;64115;50.170;8.242;2023-10-09T18:19:46;15.40;99.90
8261;DHT22;64115;50.170;8.242;2023-10-09T18:22:13;15.40;99.90
8261;DHT22;64115;50.170;8.242;2023-10-09T18:24:40;15.40;99.90
8261;DHT22;64115;50.170;8.242;2023-10-09T18:27:09;15.40;99.90
8261;DHT22;64115;50.170;8.242;2023-10-09T18:29:37;15.50;99.90
8261;DHT22;64115;50.170;8.242;2023-10-09T18:32:04;15.50;99.90
8261;DHT22;64115;50.170;8.242;2023-10-09T18:34:31;15.50;99.90
8261;DHT22;64115;50.170;8.242;2023-10-09T18:36:58;15.50;99.90
8261;DHT22;64115;50.170;8.242;2023-10-09T18:39:25;15.50;99.90
8261;DHT22;64115;50.170;8.242;2023-10-09T18:41:52;15.50;99.90
8261;DHT22;64115;50.170;8.242;2023-10-09T18:44:20;15.60;99.90
8261;DHT22;64115;50.170;8.242;2023-10-09T18:46:48;15.50;99.90
8261;DHT22;64115;50.170;8.242;2023-10-09T18:49:15;15.50;99.90
8261;DHT22;64115;50.170;8.242;2023-10-09T18:51:43;15.50;99.90
8261;DHT22;64115;50.170;8.242;2023-10-09T18:54:12;15.40;99.90
8261;DHT22;64115;50.170;8.242;2023-10-09T18:56:38;15.40;99.90
8261;DHT22;64115;50.170;8.242;2023-10-09T18:59:05;15.50;99.90
8261;DHT22;64115;50.170;8.242;2023-10-09T19:01:35;15.40;99.90
8261;DHT22;64115;50.170;8.242;2023-10-09T19:04:02;15.40;99.90
8261;DHT22;64115;50.170;8.242;2023-10-09T19:06:30;15.40;99.90
8261;DHT22;64115;50.170;8.242;2023-10-09T19:08:57;15.40;99.90
8261;DHT22;64115;50.170;8.242;2023-10-09T19:11:24;15.40;99.90
8261;DHT22;64115;50.170;8.242;2023-10-09T19:13:51;15.40;99.90
8261;DHT22;64115;50.170;8.242;2023-10-09T19:16:20;15.40;99.90
8261;DHT22;64115;50.170;8.242;2023-10-09T19:18:49;15.40;99.90
8261;DHT22;64115;50.170;8.242;2023-10-09T19:21:15;15.30;99.90
8261;DHT22;64115;50.170;8.242;2023-10-09T19:23:44;15.40;99.90
8261;DHT22;64115;50.170;8.242;2023-10-09T19:26:11;15.30;99.90